sensor_id;sensor_type;location;lat;lon;timestamp;temperature;humidity
33811;DHT22;20119;48.334;16.206;2024-02-23T00:02:01;7.60;99.90
33811;DHT22;20119;48.334;16.206;2024-02-23T00:04:29;7.50;99.90
33811;DHT22;20119;48.334;16.206;2024-02-23T00:09:32;7.50;99.90
33811;DHT22;20119;48.334;16.206;2024-02-23T00:11:59;7.50;99.90
33811;DHT22;20119;48.334;16.206;2024-02-23T00:17:01;7.50;99.90
33811;DHT22;20119;48.334;16.206;2024-02-23T00:19:31;7.40;99.90
33811;DHT22;20119;48.334;16.206;2024-02-23T00:21:58;7.30;99.90
33811;DHT22;20119;48.334;16.206;2024-02-23T00:24:26;7.30;99.90
33811;DHT22;20119;48.334;16.206;2024-02-23T00:26:53;7.30;99.90
33811;DHT22;20119;48.334;16.206;2024-02-23T00:29:20;7.30;99.90
33811;DHT22;20119;48.334;16.206;2024-02-23T00:34:23;7.20;99.90
33811;DHT22;20119;48.334;16.206;2024-02-23T00:39:27;7.20;99.90
33811;DHT22;20119;48.334;16.206;2024-02-23T00:41:54;7.10;99.90
33811;DHT22;20119;48.334;16.206;2024-02-23T00:46:57;7.30;99.90
33811;DHT22;20119;48.334;16.206;2024-02-23T00:49:27;7.30;99.90
33811;DHT22;20119;48.334;16.206;2024-02-23T00:51:54;7.30;99.90
33811;DHT22;20119;48.334;16.206;2024-02-23T00:54:22;7.30;99.90
33811;DHT22;20119;48.334;16.206;2024-02-23T00:56:50;7.20;99.90
33811;DHT22;20119;48.334;16.206;2024-02-23T00:59:18;7.30;99.90
33811;DHT22;20119;48.334;16.206;2024-02-23T01:06:55;7.10;99.90
33811;DHT22;20119;48.334;16.206;2024-02-23T01:09:22;7.20;99.90
33811;DHT22;20119;48.334;16.206;2024-02-23T01:11:51;7.10;99.90
33811;DHT22;20119;48.334;16.206;2024-02-23T01:14:18;7.10;99.90
33811;DHT22;20119;48.334;16.206;2024-02-23T01:16:45;7.10;99.90
33811;DHT22;20119;48.334;16.206;2024-02-23T01:19:12;7.10;99.90
33811;DHT22;20119;48.334;16.206;2024-02-23T01:21:39;7.10;99.90
33811;DHT22;20119;48.334;16.206;2024-02-23T01:24:06;7.10;99.90
33811;DHT22;20119;48.334;16.206;2024-02-23T01:26:33;7.00;99.90
33811;DHT22;20119;48.334;16.206;2024-02-23T01:29:02;7.00;99.90
33811;DHT22;20119;48.334;16.206;2024-02-23T01:31:30;6.90;99.90
33811;DHT22;20119;48.334;16.206;2024-02-23T01:33:57;6.90;99.90
33811;DHT22;20119;48.334;16.206;2024-02-23T01:36:24;6.90;99.90
33811;DHT22;20119;48.334;16.206;2024-02-23T01:38:51;6.90;99.90
33811;DHT22;20119;48.334;16.206;2024-02-23T01:41:18;6.90;99.90
33811;DHT22;20119;48.334;16.206;2024-02-23T01:43:45;6.90;99.90
33811;DHT22;20119;48.334;16.206;2024-02-23T01:53:47;6.90;99.90
33811;DHT22;20119;48.334;16.206;2024-02-23T01:56:14;6.90;99.90
33811;DHT22;20119;48.334;16.206;2024-02-23T01:58:43;6.90;99.90
33811;DHT22;20119;48.334;16.206;2024-02-23T02:01:11;6.90;99.90
33811;DHT22;20119;48.334;16.206;2024-02-23T02:03:38;6.80;99.90
33811;DHT22;20119;48.334;16.206;2024-02-23T02:06:06;6.80;99.90
33811;DHT22;20119;48.334;16.206;2024-02-23T02:08:33;6.80;99.90
33811;DHT22;20119;48.334;16.206;2024-02-23T02:11:03;6.90;99.90
33811;DHT22;20119;48.334;16.206;2024-02-23T02:13:30;6.90;99.90
33811;DHT22;20119;48.334;16.206;2024-02-23T02:15:58;6.90;99.90
33811;DHT22;20119;48.334;16.206;2024-02-23T02:23:37;6.90;99.90
33811;DHT22;20119;48.334;16.206;2024-02-23T02:26:05;6.90;99.90
33811;DHT22;20119;48.334;16.206;2024-02-23T02:28:32;6.90;99.90
33811;DHT22;20119;48.334;16.206;2024-02-23T02:31:00;6.90;99.90
33811;DHT22;20119;48.334;16.206;2024-02-23T02:33:27;6.90;99.90
33811;DHT22;20119;48.334;16.206;2024-02-23T02:35:54;6.90;99.90
33811;DHT22;20119;48.334;16.206;2024-02-23T02:38:21;6.90;99.90
33811;DHT22;20119;48.334;16.206;2024-02-23T02:40:48;6.90;99.90
33811;DHT22;20119;48.334;16.206;2024-02-23T02:43:17;6.90;99.90
33811;DHT22;20119;48.334;16.206;2024-02-23T02:45:44;6.80;99.90
33811;DHT22;20119;48.334;16.206;2024-02-23T02:48:11;6.90;99.90
33811;DHT22;20119;48.334;16.206;2024-02-23T02:50:38;6.80;99.90
33811;DHT22;20119;48.334;16.206;2024-02-23T02:53:05;6.80;99.90
33811;DHT22;20119;48.334;16.206;2024-02-23T02:55:32;6.80;99.90
33811;DHT22;20119;48.334;16.206;2024-02-23T02:57:59;6.90;99.90
33811;DHT22;20119;48.334;16.206;2024-02-23T03:00:28;6.90;99.90
33811;DHT22;20119;48.334;16.206;2024-02-23T03:02:56;6.90;99.90
33811;DHT22;20119;48.334;16.206;2024-02-23T03:05:23;6.90;99.90
33811;DHT22;20119;48.334;16.206;2024-02-23T03:07:50;6.90;99.90
33811;DHT22;20119;48.334;16.206;2024-02-23T03:10:17;6.90;99.90
33811;DHT22;20119;48.334;16.206;2024-02-23T03:12:44;6.90;99.90
33811;DHT22;20119;48.334;16.206;2024-02-23T03:15:12;7.00;99.90
33811;DHT22;20119;48.334;16.206;2024-02-23T03:17:40;7.10;99.90
33811;DHT22;20119;48.334;16.206;2024-02-23T03:20:08;7.10;99.90
33811;DHT22;20119;48.334;16.206;2024-02-23T03:22:36;7.10;99.90
33811;DHT22;20119;48.334;16.206;2024-02-23T03:25:04;7.00;99.90
33811;DHT22;20119;48.334;16.206;2024-02-23T03:27:34;7.00;99.90
33811;DHT22;20119;48.334;16.206;2024-02-23T03:30:03;7.00;99.90
33811;DHT22;20119;48.334;16.206;2024-02-23T03:32:31;6.90;99.90
33811;DHT22;20119;48.334;16.206;2024-02-23T03:35:03;6.90;99.90
33811;DHT22;20119;48.334;16.206;2024-02-23T03:37:30;6.90;99.90
33811;DHT22;20119;48.334;16.206;2024-02-23T03:39:57;6.90;99.90
33811;DHT22;20119;48.334;16.206;2024-02-23T03:42:25;6.90;99.90
33811;DHT22;20119;48.334;16.206;2024-02-23T03:44:52;6.90;99.90
33811;DHT22;20119;48.334;16.206;2024-02-23T03:47:20;6.90;99.90
33811;DHT22;20119;48.334;16.206;2024-02-23T03:49:47;6.90;99.90
33811;DHT22;20119;48.334;16.206;2024-02-23T03:52:15;6.90;99.90
33811;DHT22;20119;48.334;16.206;2024-02-23T03:54:43;6.90;99.90
33811;DHT22;20119;48.334;16.206;2024-02-23T03:57:10;6.90;99.90
33811;DHT22;20119;48.334;16.206;2024-02-23T03:59:37;6.90;99.90
33811;DHT22;20119;48.334;16.206;2024-02-23T04:02:04;6.90;99.90
33811;DHT22;20119;48.334;16.206;2024-02-23T04:04:31;7.00;99.90
33811;DHT22;20119;48.334;16.206;2024-02-23T04:06:58;7.00;99.90
33811;DHT22;20119;48.334;16.206;2024-02-23T04:09:26;7.10;99.90
33811;DHT22;20119;48.334;16.206;2024-02-23T04:11:54;7.10;99.90
33811;DHT22;20119;48.334;16.206;2024-02-23T04:14:21;7.00;99.90
33811;DHT22;20119;48.334;16.206;2024-02-23T04:16:48;7.00;99.90
33811;DHT22;20119;48.334;16.206;2024-02-23T04:19:15;7.00;99.90
33811;DHT22;20119;48.334;16.206;2024-02-23T04:21:45;7.10;99.90
33811;DHT22;20119;48.334;16.206;2024-02-23T04:24:12;7.10;99.90
33811;DHT22;20119;48.334;16.206;2024-02-23T04:26:40;7.10;99.90
33811;DHT22;20119;48.334;16.206;2024-02-23T04:29:07;7.20;99.90
33811;DHT22;20119;48.334;16.206;2024-02-23T04:31:36;7.20;99.90
33811;DHT22;20119;48.334;16.206;2024-02-23T04:34:03;7.30;99.90
33811;DHT22;20119;48.334;16.206;2024-02-23T04:36:30;7.30;99.90
33811;DHT22;20119;48.334;16.206;2024-02-23T04:38:57;7.50;99.90
33811;DHT22;20119;48.334;16.206;2024-02-23T04:41:25;7.50;99.90
33811;DHT22;20119;48.334;16.206;2024-02-23T04:43:53;7.60;99.90
33811;DHT22;20119;48.334;16.206;2024-02-23T04:49:01;7.70;99.90
33811;DHT22;20119;48.334;16.206;2024-02-23T04:51:28;7.70;99.90
33811;DHT22;20119;48.334;16.206;2024-02-23T04:53:55;7.80;99.90
33811;DHT22;20119;48.334;16.206;2024-02-23T04:56:22;7.80;99.90
33811;DHT22;20119;48.334;16.206;2024-02-23T04:58:49;7.80;99.90
33811;DHT22;20119;48.334;16.206;2024-02-23T05:01:17;7.80;99.90
33811;DHT22;20119;48.334;16.206;2024-02-23T05:03:45;7.90;99.90
33811;DHT22;20119;48.334;16.206;2024-02-23T05:06:12;7.80;99.90
33811;DHT22;20119;48.334;16.206;2024-02-23T05:08:39;7.80;99.90
33811;DHT22;20119;48.334;16.206;2024-02-23T05:11:06;7.90;99.90
33811;DHT22;20119;48.334;16.206;2024-02-23T05:16:09;7.90;99.90
33811;DHT22;20119;48.334;16.206;2024-02-23T05:18:37;7.90;99.90
33811;DHT22;20119;48.334;16.206;2024-02-23T05:21:04;7.90;99.90
33811;DHT22;20119;48.334;16.206;2024-02-23T05:23:31;7.90;99.90
33811;DHT22;20119;48.334;16.206;2024-02-23T05:25:58;7.80;99.90
33811;DHT22;20119;48.334;16.206;2024-02-23T05:28:26;7.80;99.90
33811;DHT22;20119;48.334;16.206;2024-02-23T05:30:54;7.80;99.90
33811;DHT22;20119;48.334;16.206;2024-02-23T05:33:21;7.80;99.90
33811;DHT22;20119;48.334;16.206;2024-02-23T05:35:51;7.80;99.90
33811;DHT22;20119;48.334;16.206;2024-02-23T05:38:18;7.80;99.90
33811;DHT22;20119;48.334;16.206;2024-02-23T05:43:20;7.80;99.90
33811;DHT22;20119;48.334;16.206;2024-02-23T05:45:47;7.80;99.90
33811;DHT22;20119;48.334;16.206;2024-02-23T05:48:15;7.80;99.90
33811;DHT22;20119;48.334;16.206;2024-02-23T05:50:43;7.80;99.90
33811;DHT22;20119;48.334;16.206;2024-02-23T05:53:12;7.80;99.90
33811;DHT22;20119;48.334;16.206;2024-02-23T05:55:39;7.80;99.90
33811;DHT22;20119;48.334;16.206;2024-02-23T05:58:06;7.80;99.90
33811;DHT22;20119;48.334;16.206;2024-02-23T06:05:44;7.90;99.90
33811;DHT22;20119;48.334;16.206;2024-02-23T06:08:13;7.80;99.90
33811;DHT22;20119;48.334;16.206;2024-02-23T06:10:40;7.90;99.90
33811;DHT22;20119;48.334;16.206;2024-02-23T06:13:12;7.90;99.90
33811;DHT22;20119;48.334;16.206;2024-02-23T06:18:09;7.90;99.90
33811;DHT22;20119;48.334;16.206;2024-02-23T06:20:36;7.80;99.90
33811;DHT22;20119;48.334;16.206;2024-02-23T06:23:03;7.90;99.90
33811;DHT22;20119;48.334;16.206;2024-02-23T06:25:32;7.80;99.90
33811;DHT22;20119;48.334;16.206;2024-02-23T06:27:59;7.80;99.90
33811;DHT22;20119;48.334;16.206;2024-02-23T06:30:26;7.80;99.90
33811;DHT22;20119;48.334;16.206;2024-02-23T06:32:53;7.80;99.90
33811;DHT22;20119;48.334;16.206;2024-02-23T06:35:20;7.80;99.90
33811;DHT22;20119;48.334;16.206;2024-02-23T06:37:50;7.80;99.90
33811;DHT22;20119;48.334;16.206;2024-02-23T06:40:17;7.70;99.90
33811;DHT22;20119;48.334;16.206;2024-02-23T06:42:46;7.80;99.90
33811;DHT22;20119;48.334;16.206;2024-02-23T06:45:13;7.70;99.90
33811;DHT22;20119;48.334;16.206;2024-02-23T06:47:40;7.70;99.90
33811;DHT22;20119;48.334;16.206;2024-02-23T06:50:08;7.70;99.90
33811;DHT22;20119;48.334;16.206;2024-02-23T06:52:35;7.70;99.90
33811;DHT22;20119;48.334;16.206;2024-02-23T06:55:03;7.70;99.90
33811;DHT22;20119;48.334;16.206;2024-02-23T06:57:31;7.80;99.90
33811;DHT22;20119;48.334;16.206;2024-02-23T07:02:34;7.80;99.90
33811;DHT22;20119;48.334;16.206;2024-02-23T07:05:03;7.90;99.90
33811;DHT22;20119;48.334;16.206;2024-02-23T07:07:31;7.90;99.90
33811;DHT22;20119;48.334;16.206;2024-02-23T07:12:35;8.00;99.90
33811;DHT22;20119;48.334;16.206;2024-02-23T07:15:02;8.00;99.90
33811;DHT22;20119;48.334;16.206;2024-02-23T07:17:29;8.00;99.90
33811;DHT22;20119;48.334;16.206;2024-02-23T07:19:58;8.00;99.90
33811;DHT22;20119;48.334;16.206;2024-02-23T07:22:31;8.00;99.90
33811;DHT22;20119;48.334;16.206;2024-02-23T07:24:58;8.00;99.90
33811;DHT22;20119;48.334;16.206;2024-02-23T07:27:27;8.10;99.90
33811;DHT22;20119;48.334;16.206;2024-02-23T07:29:54;8.10;99.90
33811;DHT22;20119;48.334;16.206;2024-02-23T07:32:21;8.10;99.90
33811;DHT22;20119;48.334;16.206;2024-02-23T07:34:48;8.20;99.90
33811;DHT22;20119;48.334;16.206;2024-02-23T07:37:16;8.10;99.90
33811;DHT22;20119;48.334;16.206;2024-02-23T07:39:44;8.10;99.90
33811;DHT22;20119;48.334;16.206;2024-02-23T07:42:11;8.10;99.90
33811;DHT22;20119;48.334;16.206;2024-02-23T07:44:40;8.10;99.90
33811;DHT22;20119;48.334;16.206;2024-02-23T07:47:07;8.00;99.90
33811;DHT22;20119;48.334;16.206;2024-02-23T07:49:34;8.00;99.90
33811;DHT22;20119;48.334;16.206;2024-02-23T07:52:01;8.00;99.90
33811;DHT22;20119;48.334;16.206;2024-02-23T07:57:05;8.00;99.90
33811;DHT22;20119;48.334;16.206;2024-02-23T07:59:33;7.90;99.90
33811;DHT22;20119;48.334;16.206;2024-02-23T08:02:01;7.90;99.90
33811;DHT22;20119;48.334;16.206;2024-02-23T08:04:28;7.90;99.90
33811;DHT22;20119;48.334;16.206;2024-02-23T08:06:55;8.00;99.90
33811;DHT22;20119;48.334;16.206;2024-02-23T08:09:22;8.00;99.90
33811;DHT22;20119;48.334;16.206;2024-02-23T08:11:49;8.00;99.90
33811;DHT22;20119;48.334;16.206;2024-02-23T08:14:18;7.90;99.90
33811;DHT22;20119;48.334;16.206;2024-02-23T08:19:15;7.90;99.90
33811;DHT22;20119;48.334;16.206;2024-02-23T08:21:42;8.00;99.90
33811;DHT22;20119;48.334;16.206;2024-02-23T08:24:10;8.00;99.90
33811;DHT22;20119;48.334;16.206;2024-02-23T08:26:37;8.00;99.90
33811;DHT22;20119;48.334;16.206;2024-02-23T08:29:05;8.00;99.90
33811;DHT22;20119;48.334;16.206;2024-02-23T08:31:33;8.10;99.90
33811;DHT22;20119;48.334;16.206;2024-02-23T08:34:00;8.10;99.90
33811;DHT22;20119;48.334;16.206;2024-02-23T08:36:28;8.00;99.90
33811;DHT22;20119;48.334;16.206;2024-02-23T08:38:55;8.00;99.90
33811;DHT22;20119;48.334;16.206;2024-02-23T08:41:22;8.00;99.90
33811;DHT22;20119;48.334;16.206;2024-02-23T08:43:49;8.10;99.90
33811;DHT22;20119;48.334;16.206;2024-02-23T08:46:16;8.00;99.90
33811;DHT22;20119;48.334;16.206;2024-02-23T08:48:46;8.10;99.90
33811;DHT22;20119;48.334;16.206;2024-02-23T08:51:13;8.00;99.90
33811;DHT22;20119;48.334;16.206;2024-02-23T08:53:40;8.10;99.90
33811;DHT22;20119;48.334;16.206;2024-02-23T08:58:43;8.10;99.90
33811;DHT22;20119;48.334;16.206;2024-02-23T09:01:10;8.00;99.90
33811;DHT22;20119;48.334;16.206;2024-02-23T09:03:37;8.10;99.90
33811;DHT22;20119;48.334;16.206;2024-02-23T09:06:06;8.10;99.90
33811;DHT22;20119;48.334;16.206;2024-02-23T09:08:33;8.10;99.90
33811;DHT22;20119;48.334;16.206;2024-02-23T09:11:00;8.10;99.90
33811;DHT22;20119;48.334;16.206;2024-02-23T09:13:27;8.20;99.90
33811;DHT22;20119;48.334;16.206;2024-02-23T09:18:37;8.30;99.90
33811;DHT22;20119;48.334;16.206;2024-02-23T09:21:06;8.40;99.90
33811;DHT22;20119;48.334;16.206;2024-02-23T09:23:33;8.40;99.90
33811;DHT22;20119;48.334;16.206;2024-02-23T09:26:00;8.50;99.90
33811;DHT22;20119;48.334;16.206;2024-02-23T09:28:27;8.60;99.90
33811;DHT22;20119;48.334;16.206;2024-02-23T09:33:31;8.70;99.90
33811;DHT22;20119;48.334;16.206;2024-02-23T09:35:59;8.80;99.90
33811;DHT22;20119;48.334;16.206;2024-02-23T09:38:27;9.00;99.90
33811;DHT22;20119;48.334;16.206;2024-02-23T09:40:58;9.10;99.90
33811;DHT22;20119;48.334;16.206;2024-02-23T09:43:29;9.10;99.90
33811;DHT22;20119;48.334;16.206;2024-02-23T09:45:57;9.30;99.90
33811;DHT22;20119;48.334;16.206;2024-02-23T09:48:25;9.30;99.90
33811;DHT22;20119;48.334;16.206;2024-02-23T09:50:52;9.40;99.90
33811;DHT22;20119;48.334;16.206;2024-02-23T09:53:23;9.40;99.90
33811;DHT22;20119;48.334;16.206;2024-02-23T09:55:51;9.50;99.90
33811;DHT22;20119;48.334;16.206;2024-02-23T09:58:20;9.50;99.90
33811;DHT22;20119;48.334;16.206;2024-02-23T10:00:50;9.60;99.90
33811;DHT22;20119;48.334;16.206;2024-02-23T10:03:17;9.50;99.90
33811;DHT22;20119;48.334;16.206;2024-02-23T10:05:44;9.50;99.90
33811;DHT22;20119;48.334;16.206;2024-02-23T10:08:11;9.50;99.90
33811;DHT22;20119;48.334;16.206;2024-02-23T10:10:39;9.50;99.90
33811;DHT22;20119;48.334;16.206;2024-02-23T10:13:08;9.40;99.90
33811;DHT22;20119;48.334;16.206;2024-02-23T10:15:35;9.30;99.90
33811;DHT22;20119;48.334;16.206;2024-02-23T10:18:02;9.30;99.90
33811;DHT22;20119;48.334;16.206;2024-02-23T10:20:30;9.30;99.90
33811;DHT22;20119;48.334;16.206;2024-02-23T10:22:57;9.30;99.90
33811;DHT22;20119;48.334;16.206;2024-02-23T10:30:31;9.60;99.90
33811;DHT22;20119;48.334;16.206;2024-02-23T10:32:59;9.50;99.90
33811;DHT22;20119;48.334;16.206;2024-02-23T10:35:26;9.40;99.90
33811;DHT22;20119;48.334;16.206;2024-02-23T10:37:54;9.20;99.90
33811;DHT22;20119;48.334;16.206;2024-02-23T10:40:21;9.30;99.90
33811;DHT22;20119;48.334;16.206;2024-02-23T10:42:50;9.40;99.90
33811;DHT22;20119;48.334;16.206;2024-02-23T10:45:20;9.40;99.90
33811;DHT22;20119;48.334;16.206;2024-02-23T10:47:50;9.50;99.90
33811;DHT22;20119;48.334;16.206;2024-02-23T10:50:18;9.70;99.90
33811;DHT22;20119;48.334;16.206;2024-02-23T10:52:45;9.70;99.90
33811;DHT22;20119;48.334;16.206;2024-02-23T10:55:14;9.80;99.90
33811;DHT22;20119;48.334;16.206;2024-02-23T10:57:42;9.90;99.90
33811;DHT22;20119;48.334;16.206;2024-02-23T11:00:11;9.80;99.90
33811;DHT22;20119;48.334;16.206;2024-02-23T11:05:16;9.80;99.90
33811;DHT22;20119;48.334;16.206;2024-02-23T11:07:43;9.80;99.90
33811;DHT22;20119;48.334;16.206;2024-02-23T11:10:15;9.70;99.90
33811;DHT22;20119;48.334;16.206;2024-02-23T11:12:43;9.80;99.90
33811;DHT22;20119;48.334;16.206;2024-02-23T11:15:28;9.90;99.90
33811;DHT22;20119;48.334;16.206;2024-02-23T11:17:55;9.80;99.90
33811;DHT22;20119;48.334;16.206;2024-02-23T11:20:24;9.70;99.90
33811;DHT22;20119;48.334;16.206;2024-02-23T11:25:36;9.70;99.90
33811;DHT22;20119;48.334;16.206;2024-02-23T11:28:03;9.50;99.90
33811;DHT22;20119;48.334;16.206;2024-02-23T11:30:32;9.50;99.90
33811;DHT22;20119;48.334;16.206;2024-02-23T11:32:59;9.60;99.90
33811;DHT22;20119;48.334;16.206;2024-02-23T11:40:39;9.40;99.90
33811;DHT22;20119;48.334;16.206;2024-02-23T11:43:06;9.50;99.90
33811;DHT22;20119;48.334;16.206;2024-02-23T11:48:09;9.60;99.90
33811;DHT22;20119;48.334;16.206;2024-02-23T11:50:36;9.50;99.90
33811;DHT22;20119;48.334;16.206;2024-02-23T11:53:04;9.50;99.90
33811;DHT22;20119;48.334;16.206;2024-02-23T11:55:31;9.50;99.90
33811;DHT22;20119;48.334;16.206;2024-02-23T12:00:47;9.40;99.90
33811;DHT22;20119;48.334;16.206;2024-02-23T12:03:16;9.60;99.90
33811;DHT22;20119;48.334;16.206;2024-02-23T12:08:21;9.70;99.90
33811;DHT22;20119;48.334;16.206;2024-02-23T12:10:49;9.50;99.90
33811;DHT22;20119;48.334;16.206;2024-02-23T12:13:17;9.50;99.90
33811;DHT22;20119;48.334;16.206;2024-02-23T12:15:45;9.50;99.90
33811;DHT22;20119;48.334;16.206;2024-02-23T12:18:13;9.70;99.90
33811;DHT22;20119;48.334;16.206;2024-02-23T12:20:40;9.60;99.90
33811;DHT22;20119;48.334;16.206;2024-02-23T12:28:18;9.80;99.90
33811;DHT22;20119;48.334;16.206;2024-02-23T12:30:46;9.50;99.90
33811;DHT22;20119;48.334;16.206;2024-02-23T12:33:24;9.50;99.90
33811;DHT22;20119;48.334;16.206;2024-02-23T12:38:29;9.40;99.90
33811;DHT22;20119;48.334;16.206;2024-02-23T12:40:56;9.30;99.90
33811;DHT22;20119;48.334;16.206;2024-02-23T12:46:00;9.30;99.90
33811;DHT22;20119;48.334;16.206;2024-02-23T12:48:29;9.10;99.90
33811;DHT22;20119;48.334;16.206;2024-02-23T12:53:33;9.20;99.90
33811;DHT22;20119;48.334;16.206;2024-02-23T12:56:02;9.10;99.90
33811;DHT22;20119;48.334;16.206;2024-02-23T12:58:29;9.10;99.90
33811;DHT22;20119;48.334;16.206;2024-02-23T13:00:56;9.10;99.90
33811;DHT22;20119;48.334;16.206;2024-02-23T13:03:26;9.20;99.90
33811;DHT22;20119;48.334;16.206;2024-02-23T13:05:54;9.30;99.90
33811;DHT22;20119;48.334;16.206;2024-02-23T13:10:58;9.10;99.90
33811;DHT22;20119;48.334;16.206;2024-02-23T13:13:26;9.00;99.90
33811;DHT22;20119;48.334;16.206;2024-02-23T13:15:54;9.00;99.90
33811;DHT22;20119;48.334;16.206;2024-02-23T13:18:21;9.00;99.90
33811;DHT22;20119;48.334;16.206;2024-02-23T13:20:50;8.90;99.90
33811;DHT22;20119;48.334;16.206;2024-02-23T13:25:53;8.80;99.90
33811;DHT22;20119;48.334;16.206;2024-02-23T13:33:31;8.70;99.90
33811;DHT22;20119;48.334;16.206;2024-02-23T13:35:59;8.70;99.90
33811;DHT22;20119;48.334;16.206;2024-02-23T13:38:29;8.60;99.90
33811;DHT22;20119;48.334;16.206;2024-02-23T13:40:57;8.50;99.90
33811;DHT22;20119;48.334;16.206;2024-02-23T13:45:59;8.50;99.90
33811;DHT22;20119;48.334;16.206;2024-02-23T13:48:28;8.50;99.90
33811;DHT22;20119;48.334;16.206;2024-02-23T13:50:55;8.40;99.90
33811;DHT22;20119;48.334;16.206;2024-02-23T13:53:23;8.40;99.90
33811;DHT22;20119;48.334;16.206;2024-02-23T14:01:01;8.40;99.90
33811;DHT22;20119;48.334;16.206;2024-02-23T14:03:28;8.40;99.90
33811;DHT22;20119;48.334;16.206;2024-02-23T14:05:56;8.40;99.90
33811;DHT22;20119;48.334;16.206;2024-02-23T14:08:25;8.40;99.90
33811;DHT22;20119;48.334;16.206;2024-02-23T14:10:56;8.40;99.90
33811;DHT22;20119;48.334;16.206;2024-02-23T14:13:23;8.30;99.90
33811;DHT22;20119;48.334;16.206;2024-02-23T14:18:25;8.40;99.90
33811;DHT22;20119;48.334;16.206;2024-02-23T14:23:28;8.50;99.90
33811;DHT22;20119;48.334;16.206;2024-02-23T14:25:55;8.50;99.90
33811;DHT22;20119;48.334;16.206;2024-02-23T14:30:58;8.40;99.90
33811;DHT22;20119;48.334;16.206;2024-02-23T14:33:25;8.40;99.90
33811;DHT22;20119;48.334;16.206;2024-02-23T14:35:53;8.40;99.90
33811;DHT22;20119;48.334;16.206;2024-02-23T14:40:58;8.60;99.90
33811;DHT22;20119;48.334;16.206;2024-02-23T14:46:00;8.60;99.90
33811;DHT22;20119;48.334;16.206;2024-02-23T14:48:27;8.60;99.90
33811;DHT22;20119;48.334;16.206;2024-02-23T14:50:54;8.50;99.90
33811;DHT22;20119;48.334;16.206;2024-02-23T14:53:23;8.40;99.90
33811;DHT22;20119;48.334;16.206;2024-02-23T14:55:51;8.50;99.90
33811;DHT22;20119;48.334;16.206;2024-02-23T14:58:21;8.50;99.90
33811;DHT22;20119;48.334;16.206;2024-02-23T15:00:48;8.50;99.90
33811;DHT22;20119;48.334;16.206;2024-02-23T15:05:50;8.60;99.90
33811;DHT22;20119;48.334;16.206;2024-02-23T15:08:17;8.70;99.90
33811;DHT22;20119;48.334;16.206;2024-02-23T15:10:44;8.70;99.90
33811;DHT22;20119;48.334;16.206;2024-02-23T15:13:11;8.80;99.90
33811;DHT22;20119;48.334;16.206;2024-02-23T15:18:15;8.90;99.90
33811;DHT22;20119;48.334;16.206;2024-02-23T15:23:18;9.00;99.90
33811;DHT22;20119;48.334;16.206;2024-02-23T15:28:22;8.90;99.90
33811;DHT22;20119;48.334;16.206;2024-02-23T15:30:49;9.00;99.90
33811;DHT22;20119;48.334;16.206;2024-02-23T15:33:19;9.00;99.90
33811;DHT22;20119;48.334;16.206;2024-02-23T15:35:46;9.00;99.90
33811;DHT22;20119;48.334;16.206;2024-02-23T15:40:49;9.00;99.90
33811;DHT22;20119;48.334;16.206;2024-02-23T15:43:16;9.10;99.90
33811;DHT22;20119;48.334;16.206;2024-02-23T15:48:20;9.00;99.90
33811;DHT22;20119;48.334;16.206;2024-02-23T15:50:47;8.90;99.90
33811;DHT22;20119;48.334;16.206;2024-02-23T15:53:14;8.90;99.90
33811;DHT22;20119;48.334;16.206;2024-02-23T15:58:16;8.80;99.90
33811;DHT22;20119;48.334;16.206;2024-02-23T16:00:46;8.80;99.90
33811;DHT22;20119;48.334;16.206;2024-02-23T16:03:12;8.80;99.90
33811;DHT22;20119;48.334;16.206;2024-02-23T16:05:44;8.70;99.90
33811;DHT22;20119;48.334;16.206;2024-02-23T16:08:11;8.80;99.90
33811;DHT22;20119;48.334;16.206;2024-02-23T16:10:38;8.80;99.90
33811;DHT22;20119;48.334;16.206;2024-02-23T16:15:40;8.80;99.90
33811;DHT22;20119;48.334;16.206;2024-02-23T16:18:07;8.80;99.90
33811;DHT22;20119;48.334;16.206;2024-02-23T16:20:34;8.90;99.90
33811;DHT22;20119;48.334;16.206;2024-02-23T16:23:03;8.90;99.90
33811;DHT22;20119;48.334;16.206;2024-02-23T16:25:30;8.90;99.90
33811;DHT22;20119;48.334;16.206;2024-02-23T16:30:33;9.10;99.90
33811;DHT22;20119;48.334;16.206;2024-02-23T16:40:47;9.30;99.90
33811;DHT22;20119;48.334;16.206;2024-02-23T16:43:14;9.40;99.90
33811;DHT22;20119;48.334;16.206;2024-02-23T16:45:41;9.50;99.90
33811;DHT22;20119;48.334;16.206;2024-02-23T16:48:08;9.50;99.90
33811;DHT22;20119;48.334;16.206;2024-02-23T16:50:37;9.50;99.90
33811;DHT22;20119;48.334;16.206;2024-02-23T16:53:05;9.50;99.90
33811;DHT22;20119;48.334;16.206;2024-02-23T16:55:32;9.60;99.90
33811;DHT22;20119;48.334;16.206;2024-02-23T16:58:00;9.70;99.90
33811;DHT22;20119;48.334;16.206;2024-02-23T17:00:28;9.70;99.90
33811;DHT22;20119;48.334;16.206;2024-02-23T17:02:55;9.70;99.90
33811;DHT22;20119;48.334;16.206;2024-02-23T17:05:22;9.70;99.90
33811;DHT22;20119;48.334;16.206;2024-02-23T17:07:49;9.70;99.90
33811;DHT22;20119;48.334;16.206;2024-02-23T17:10:16;9.70;99.90
33811;DHT22;20119;48.334;16.206;2024-02-23T17:12:44;9.80;99.90
33811;DHT22;20119;48.334;16.206;2024-02-23T17:15:15;9.80;99.90
33811;DHT22;20119;48.334;16.206;2024-02-23T17:17:42;9.80;99.90
33811;DHT22;20119;48.334;16.206;2024-02-23T17:20:10;9.70;99.90
33811;DHT22;20119;48.334;16.206;2024-02-23T17:22:37;9.50;99.90
33811;DHT22;20119;48.334;16.206;2024-02-23T17:25:05;9.20;99.90
33811;DHT22;20119;48.334;16.206;2024-02-23T17:27:33;8.70;99.90
33811;DHT22;20119;48.334;16.206;2024-02-23T17:30:02;8.50;99.90
33811;DHT22;20119;48.334;16.206;2024-02-23T17:32:31;8.20;99.90
33811;DHT22;20119;48.334;16.206;2024-02-23T17:40:10;7.90;99.90
33811;DHT22;20119;48.334;16.206;2024-02-23T17:42:37;7.60;99.90
33811;DHT22;20119;48.334;16.206;2024-02-23T17:45:06;7.40;99.90
33811;DHT22;20119;48.334;16.206;2024-02-23T17:47:36;7.40;99.90
33811;DHT22;20119;48.334;16.206;2024-02-23T17:50:04;7.10;99.90
33811;DHT22;20119;48.334;16.206;2024-02-23T17:52:32;7.00;99.90
33811;DHT22;20119;48.334;16.206;2024-02-23T17:54:59;7.00;99.90
33811;DHT22;20119;48.334;16.206;2024-02-23T17:57:26;6.90;99.90
33811;DHT22;20119;48.334;16.206;2024-02-23T17:59:53;6.70;99.90
33811;DHT22;20119;48.334;16.206;2024-02-23T18:02:20;6.70;99.90
33811;DHT22;20119;48.334;16.206;2024-02-23T18:04:49;6.60;99.90
33811;DHT22;20119;48.334;16.206;2024-02-23T18:07:16;6.60;99.90
33811;DHT22;20119;48.334;16.206;2024-02-23T18:09:43;6.50;99.90
33811;DHT22;20119;48.334;16.206;2024-02-23T18:12:10;6.30;99.90
33811;DHT22;20119;48.334;16.206;2024-02-23T18:14:37;6.20;99.90
33811;DHT22;20119;48.334;16.206;2024-02-23T18:17:04;6.20;99.90
33811;DHT22;20119;48.334;16.206;2024-02-23T18:19:31;6.20;99.90
33811;DHT22;20119;48.334;16.206;2024-02-23T18:22:00;6.10;99.90